sensor_id;sensor_type;location;lat;lon;timestamp;P1;durP1;ratioP1;P2;durP2;ratioP2
18917;SDS011;9591;52.742;13.650;2023-04-23T00:01:38;17.23;;;7.40;;
18917;SDS011;9591;52.742;13.650;2023-04-23T00:04:35;11.13;;;7.07;;
18917;SDS011;9591;52.742;13.650;2023-04-23T00:07:25;15.97;;;7.43;;
18917;SDS011;9591;52.742;13.650;2023-04-23T00:10:13;10.83;;;7.00;;
18917;SDS011;9591;52.742;13.650;2023-04-23T00:13:00;9.87;;;7.10;;
18917;SDS011;9591;52.742;13.650;2023-04-23T00:15:49;11.97;;;7.73;;
18917;SDS011;9591;52.742;13.650;2023-04-23T00:18:36;13.50;;;7.43;;
18917;SDS011;9591;52.742;13.650;2023-04-23T00:21:23;13.60;;;7.80;;
18917;SDS011;9591;52.742;13.650;2023-04-23T00:24:13;14.73;;;7.33;;
18917;SDS011;9591;52.742;13.650;2023-04-23T00:26:59;10.33;;;7.20;;
18917;SDS011;9591;52.742;13.650;2023-04-23T00:29:46;12.97;;;7.37;;
18917;SDS011;9591;52.742;13.650;2023-04-23T00:32:38;13.63;;;7.47;;
18917;SDS011;9591;52.742;13.650;2023-04-23T00:35:26;13.67;;;7.67;;
18917;SDS011;9591;52.742;13.650;2023-04-23T00:38:13;13.30;;;8.00;;
18917;SDS011;9591;52.742;13.650;2023-04-23T00:41:02;13.23;;;7.60;;
18917;SDS011;9591;52.742;13.650;2023-04-23T00:43:49;15.63;;;8.43;;
18917;SDS011;9591;52.742;13.650;2023-04-23T00:46:36;13.33;;;7.10;;
18917;SDS011;9591;52.742;13.650;2023-04-23T00:49:23;15.33;;;7.87;;
18917;SDS011;9591;52.742;13.650;2023-04-23T00:52:10;12.13;;;7.60;;
18917;SDS011;9591;52.742;13.650;2023-04-23T00:54:57;12.97;;;8.67;;
18917;SDS011;9591;52.742;13.650;2023-04-23T00:57:46;13.13;;;8.10;;
18917;SDS011;9591;52.742;13.650;2023-04-23T01:00:36;11.57;;;8.00;;
18917;SDS011;9591;52.742;13.650;2023-04-23T01:03:30;12.27;;;7.97;;
18917;SDS011;9591;52.742;13.650;2023-04-23T01:06:20;12.90;;;8.60;;
18917;SDS011;9591;52.742;13.650;2023-04-23T01:09:09;15.90;;;8.30;;
18917;SDS011;9591;52.742;13.650;2023-04-23T01:12:02;16.33;;;8.77;;
18917;SDS011;9591;52.742;13.650;2023-04-23T01:14:52;10.77;;;7.90;;
18917;SDS011;9591;52.742;13.650;2023-04-23T01:17:39;14.87;;;7.60;;
18917;SDS011;9591;52.742;13.650;2023-04-23T01:20:27;10.27;;;7.17;;
18917;SDS011;9591;52.742;13.650;2023-04-23T01:23:15;10.67;;;7.07;;
18917;SDS011;9591;52.742;13.650;2023-04-23T01:26:03;13.23;;;7.30;;
18917;SDS011;9591;52.742;13.650;2023-04-23T01:28:50;11.90;;;7.77;;
18917;SDS011;9591;52.742;13.650;2023-04-23T01:31:38;15.30;;;8.73;;
18917;SDS011;9591;52.742;13.650;2023-04-23T01:34:27;13.07;;;7.97;;
18917;SDS011;9591;52.742;13.650;2023-04-23T01:37:15;15.33;;;8.03;;
18917;SDS011;9591;52.742;13.650;2023-04-23T01:40:04;14.00;;;8.47;;
18917;SDS011;9591;52.742;13.650;2023-04-23T01:42:52;14.80;;;8.10;;
18917;SDS011;9591;52.742;13.650;2023-04-23T01:45:40;13.90;;;8.60;;
18917;SDS011;9591;52.742;13.650;2023-04-23T01:48:26;13.73;;;8.33;;
18917;SDS011;9591;52.742;13.650;2023-04-23T01:51:14;13.90;;;7.83;;
18917;SDS011;9591;52.742;13.650;2023-04-23T01:54:00;19.23;;;7.80;;
18917;SDS011;9591;52.742;13.650;2023-04-23T01:56:48;13.87;;;8.87;;
18917;SDS011;9591;52.742;13.650;2023-04-23T01:59:39;14.60;;;8.23;;
18917;SDS011;9591;52.742;13.650;2023-04-23T02:02:26;12.67;;;8.10;;
18917;SDS011;9591;52.742;13.650;2023-04-23T02:05:14;17.70;;;8.43;;
18917;SDS011;9591;52.742;13.650;2023-04-23T02:08:03;13.03;;;7.30;;
18917;SDS011;9591;52.742;13.650;2023-04-23T02:10:50;14.10;;;7.67;;
18917;SDS011;9591;52.742;13.650;2023-04-23T02:13:38;13.80;;;7.83;;
18917;SDS011;9591;52.742;13.650;2023-04-23T02:16:25;13.80;;;8.23;;
18917;SDS011;9591;52.742;13.650;2023-04-23T02:19:12;15.73;;;8.23;;
18917;SDS011;9591;52.742;13.650;2023-04-23T02:22:00;12.70;;;7.80;;
18917;SDS011;9591;52.742;13.650;2023-04-23T02:24:47;13.57;;;7.60;;
18917;SDS011;9591;52.742;13.650;2023-04-23T02:27:35;11.20;;;7.40;;
18917;SDS011;9591;52.742;13.650;2023-04-23T02:30:23;11.73;;;7.03;;
18917;SDS011;9591;52.742;13.650;2023-04-23T02:33:10;13.00;;;7.47;;
18917;SDS011;9591;52.742;13.650;2023-04-23T02:35:57;12.67;;;7.60;;
18917;SDS011;9591;52.742;13.650;2023-04-23T02:38:44;15.87;;;8.47;;
18917;SDS011;9591;52.742;13.650;2023-04-23T02:41:32;10.93;;;7.67;;
18917;SDS011;9591;52.742;13.650;2023-04-23T02:44:19;12.87;;;7.77;;
18917;SDS011;9591;52.742;13.650;2023-04-23T02:47:07;13.63;;;8.13;;
18917;SDS011;9591;52.742;13.650;2023-04-23T02:49:54;9.77;;;7.20;;
18917;SDS011;9591;52.742;13.650;2023-04-23T02:52:42;15.10;;;7.60;;
18917;SDS011;9591;52.742;13.650;2023-04-23T02:55:28;17.93;;;8.43;;
18917;SDS011;9591;52.742;13.650;2023-04-23T02:58:16;13.50;;;8.23;;
18917;SDS011;9591;52.742;13.650;2023-04-23T03:01:08;20.60;;;8.23;;
18917;SDS011;9591;52.742;13.650;2023-04-23T03:03:56;12.23;;;8.40;;
18917;SDS011;9591;52.742;13.650;2023-04-23T03:06:43;15.30;;;8.37;;
18917;SDS011;9591;52.742;13.650;2023-04-23T03:09:30;13.30;;;8.93;;
18917;SDS011;9591;52.742;13.650;2023-04-23T03:12:17;14.33;;;8.67;;
18917;SDS011;9591;52.742;13.650;2023-04-23T03:15:04;16.23;;;10.13;;
18917;SDS011;9591;52.742;13.650;2023-04-23T03:17:53;13.17;;;9.20;;
18917;SDS011;9591;52.742;13.650;2023-04-23T03:20:42;14.87;;;9.03;;
18917;SDS011;9591;52.742;13.650;2023-04-23T03:23:29;15.07;;;9.73;;
18917;SDS011;9591;52.742;13.650;2023-04-23T03:26:15;19.40;;;9.73;;
18917;SDS011;9591;52.742;13.650;2023-04-23T03:29:02;15.50;;;10.20;;
18917;SDS011;9591;52.742;13.650;2023-04-23T03:31:51;14.63;;;9.57;;
18917;SDS011;9591;52.742;13.650;2023-04-23T03:34:37;16.83;;;9.73;;
18917;SDS011;9591;52.742;13.650;2023-04-23T03:37:26;16.53;;;10.60;;
18917;SDS011;9591;52.742;13.650;2023-04-23T03:40:13;18.57;;;10.57;;
18917;SDS011;9591;52.742;13.650;2023-04-23T03:43:03;17.00;;;9.93;;
18917;SDS011;9591;52.742;13.650;2023-04-23T03:46:09;14.20;;;10.03;;
18917;SDS011;9591;52.742;13.650;2023-04-23T03:48:58;16.10;;;9.90;;
18917;SDS011;9591;52.742;13.650;2023-04-23T03:51:45;18.20;;;10.53;;
18917;SDS011;9591;52.742;13.650;2023-04-23T03:54:34;17.30;;;10.90;;
18917;SDS011;9591;52.742;13.650;2023-04-23T03:57:29;15.37;;;10.07;;
18917;SDS011;9591;52.742;13.650;2023-04-23T04:00:28;18.47;;;9.83;;
18917;SDS011;9591;52.742;13.650;2023-04-23T04:03:15;17.07;;;9.90;;
18917;SDS011;9591;52.742;13.650;2023-04-23T04:06:02;13.87;;;9.50;;
18917;SDS011;9591;52.742;13.650;2023-04-23T04:08:49;14.67;;;8.97;;
18917;SDS011;9591;52.742;13.650;2023-04-23T04:11:38;16.30;;;8.90;;
18917;SDS011;9591;52.742;13.650;2023-04-23T04:14:26;17.93;;;9.90;;
18917;SDS011;9591;52.742;13.650;2023-04-23T04:17:13;17.90;;;9.73;;
18917;SDS011;9591;52.742;13.650;2023-04-23T04:20:00;15.30;;;9.90;;
18917;SDS011;9591;52.742;13.650;2023-04-23T04:22:47;11.70;;;8.87;;
18917;SDS011;9591;52.742;13.650;2023-04-23T04:25:34;15.80;;;9.17;;
18917;SDS011;9591;52.742;13.650;2023-04-23T04:28:25;18.27;;;9.07;;
18917;SDS011;9591;52.742;13.650;2023-04-23T04:31:12;17.30;;;8.80;;
18917;SDS011;9591;52.742;13.650;2023-04-23T04:34:00;13.97;;;8.47;;
18917;SDS011;9591;52.742;13.650;2023-04-23T04:36:47;15.97;;;8.97;;
18917;SDS011;9591;52.742;13.650;2023-04-23T04:39:35;12.97;;;9.00;;
18917;SDS011;9591;52.742;13.650;2023-04-23T04:42:22;15.97;;;9.67;;
18917;SDS011;9591;52.742;13.650;2023-04-23T04:45:11;18.53;;;10.67;;
18917;SDS011;9591;52.742;13.650;2023-04-23T04:47:58;15.97;;;9.60;;
18917;SDS011;9591;52.742;13.650;2023-04-23T04:50:44;15.77;;;10.30;;
18917;SDS011;9591;52.742;13.650;2023-04-23T04:53:31;16.43;;;10.03;;
18917;SDS011;9591;52.742;13.650;2023-04-23T04:56:20;17.43;;;10.30;;
18917;SDS011;9591;52.742;13.650;2023-04-23T04:59:08;17.97;;;9.53;;
18917;SDS011;9591;52.742;13.650;2023-04-23T05:01:56;18.30;;;8.47;;
18917;SDS011;9591;52.742;13.650;2023-04-23T05:04:44;16.93;;;10.07;;
18917;SDS011;9591;52.742;13.650;2023-04-23T05:07:31;16.97;;;9.83;;
18917;SDS011;9591;52.742;13.650;2023-04-23T05:10:17;17.30;;;10.33;;
18917;SDS011;9591;52.742;13.650;2023-04-23T05:13:04;13.20;;;9.40;;
18917;SDS011;9591;52.742;13.650;2023-04-23T05:15:51;17.23;;;9.00;;
18917;SDS011;9591;52.742;13.650;2023-04-23T05:18:39;15.30;;;9.10;;
18917;SDS011;9591;52.742;13.650;2023-04-23T05:21:26;15.60;;;8.90;;
18917;SDS011;9591;52.742;13.650;2023-04-23T05:24:13;19.97;;;9.40;;
18917;SDS011;9591;52.742;13.650;2023-04-23T05:27:00;15.90;;;8.80;;
18917;SDS011;9591;52.742;13.650;2023-04-23T05:29:47;11.07;;;8.60;;
18917;SDS011;9591;52.742;13.650;2023-04-23T05:32:34;14.43;;;8.90;;
18917;SDS011;9591;52.742;13.650;2023-04-23T05:35:24;13.10;;;8.30;;
18917;SDS011;9591;52.742;13.650;2023-04-23T05:38:12;15.57;;;8.37;;
18917;SDS011;9591;52.742;13.650;2023-04-23T05:41:00;13.20;;;8.43;;
18917;SDS011;9591;52.742;13.650;2023-04-23T05:43:48;14.87;;;8.80;;
18917;SDS011;9591;52.742;13.650;2023-04-23T05:46:36;13.20;;;7.67;;
18917;SDS011;9591;52.742;13.650;2023-04-23T05:49:25;11.30;;;8.07;;
18917;SDS011;9591;52.742;13.650;2023-04-23T05:52:14;11.40;;;7.77;;
18917;SDS011;9591;52.742;13.650;2023-04-23T05:55:03;15.47;;;8.23;;
18917;SDS011;9591;52.742;13.650;2023-04-23T05:57:51;12.03;;;8.30;;
18917;SDS011;9591;52.742;13.650;2023-04-23T06:00:39;13.33;;;7.93;;
18917;SDS011;9591;52.742;13.650;2023-04-23T06:03:26;15.83;;;8.10;;
18917;SDS011;9591;52.742;13.650;2023-04-23T06:06:12;14.47;;;8.00;;
18917;SDS011;9591;52.742;13.650;2023-04-23T06:09:01;11.97;;;7.77;;
18917;SDS011;9591;52.742;13.650;2023-04-23T06:11:48;13.63;;;7.17;;
18917;SDS011;9591;52.742;13.650;2023-04-23T06:14:36;13.53;;;7.10;;
18917;SDS011;9591;52.742;13.650;2023-04-23T06:17:23;12.47;;;7.40;;
18917;SDS011;9591;52.742;13.650;2023-04-23T06:20:10;11.20;;;7.27;;
18917;SDS011;9591;52.742;13.650;2023-04-23T06:22:57;10.40;;;6.90;;
18917;SDS011;9591;52.742;13.650;2023-04-23T06:25:45;15.07;;;7.93;;
18917;SDS011;9591;52.742;13.650;2023-04-23T06:28:31;13.40;;;7.70;;
18917;SDS011;9591;52.742;13.650;2023-04-23T06:31:37;14.80;;;7.67;;
18917;SDS011;9591;52.742;13.650;2023-04-23T06:34:25;11.60;;;7.70;;
18917;SDS011;9591;52.742;13.650;2023-04-23T06:37:12;14.73;;;7.97;;
18917;SDS011;9591;52.742;13.650;2023-04-23T06:39:59;11.03;;;7.23;;
18917;SDS011;9591;52.742;13.650;2023-04-23T06:42:47;19.60;;;7.63;;
18917;SDS011;9591;52.742;13.650;2023-04-23T06:45:50;11.93;;;7.10;;
18917;SDS011;9591;52.742;13.650;2023-04-23T06:48:37;15.10;;;7.67;;
18917;SDS011;9591;52.742;13.650;2023-04-23T06:51:24;14.20;;;8.10;;
18917;SDS011;9591;52.742;13.650;2023-04-23T06:54:11;13.73;;;8.00;;
18917;SDS011;9591;52.742;13.650;2023-04-23T06:56:58;15.90;;;8.57;;
18917;SDS011;9591;52.742;13.650;2023-04-23T06:59:47;16.03;;;8.57;;
18917;SDS011;9591;52.742;13.650;2023-04-23T07:02:35;10.73;;;7.33;;
18917;SDS011;9591;52.742;13.650;2023-04-23T07:05:22;14.07;;;8.17;;
18917;SDS011;9591;52.742;13.650;2023-04-23T07:08:08;13.17;;;8.43;;
18917;SDS011;9591;52.742;13.650;2023-04-23T07:10:55;13.37;;;8.43;;
18917;SDS011;9591;52.742;13.650;2023-04-23T07:13:42;14.63;;;8.63;;
18917;SDS011;9591;52.742;13.650;2023-04-23T07:16:31;14.93;;;7.97;;
18917;SDS011;9591;52.742;13.650;2023-04-23T07:19:17;13.83;;;8.03;;
18917;SDS011;9591;52.742;13.650;2023-04-23T07:22:04;14.13;;;7.77;;
18917;SDS011;9591;52.742;13.650;2023-04-23T07:24:51;11.07;;;6.47;;
18917;SDS011;9591;52.742;13.650;2023-04-23T07:27:38;8.10;;;5.40;;
18917;SDS011;9591;52.742;13.650;2023-04-23T07:30:25;7.40;;;4.83;;
18917;SDS011;9591;52.742;13.650;2023-04-23T07:33:13;6.40;;;4.67;;
18917;SDS011;9591;52.742;13.650;2023-04-23T07:36:00;8.40;;;5.13;;
18917;SDS011;9591;52.742;13.650;2023-04-23T07:38:47;6.93;;;5.20;;
18917;SDS011;9591;52.742;13.650;2023-04-23T07:41:33;7.83;;;5.20;;
18917;SDS011;9591;52.742;13.650;2023-04-23T07:44:21;10.63;;;4.90;;
18917;SDS011;9591;52.742;13.650;2023-04-23T07:47:08;7.93;;;4.83;;
18917;SDS011;9591;52.742;13.650;2023-04-23T07:49:56;11.67;;;5.37;;
18917;SDS011;9591;52.742;13.650;2023-04-23T07:52:43;8.33;;;5.43;;
18917;SDS011;9591;52.742;13.650;2023-04-23T07:55:30;10.00;;;5.47;;
18917;SDS011;9591;52.742;13.650;2023-04-23T07:58:16;8.30;;;5.67;;
18917;SDS011;9591;52.742;13.650;2023-04-23T08:01:03;10.27;;;5.83;;
18917;SDS011;9591;52.742;13.650;2023-04-23T08:03:50;8.23;;;5.60;;
18917;SDS011;9591;52.742;13.650;2023-04-23T08:06:44;9.33;;;5.27;;
18917;SDS011;9591;52.742;13.650;2023-04-23T08:09:31;8.70;;;5.40;;
18917;SDS011;9591;52.742;13.650;2023-04-23T08:12:18;11.10;;;6.07;;
18917;SDS011;9591;52.742;13.650;2023-04-23T08:15:05;11.20;;;6.13;;
18917;SDS011;9591;52.742;13.650;2023-04-23T08:17:57;9.70;;;6.50;;
18917;SDS011;9591;52.742;13.650;2023-04-23T08:20:43;8.00;;;5.10;;
18917;SDS011;9591;52.742;13.650;2023-04-23T08:23:32;11.57;;;5.37;;
18917;SDS011;9591;52.742;13.650;2023-04-23T08:26:18;10.83;;;5.80;;
18917;SDS011;9591;52.742;13.650;2023-04-23T08:29:05;14.13;;;5.77;;
18917;SDS011;9591;52.742;13.650;2023-04-23T08:31:55;7.17;;;5.70;;
18917;SDS011;9591;52.742;13.650;2023-04-23T08:34:42;9.10;;;6.00;;
18917;SDS011;9591;52.742;13.650;2023-04-23T08:37:29;9.00;;;5.70;;
18917;SDS011;9591;52.742;13.650;2023-04-23T08:40:17;10.43;;;5.27;;
18917;SDS011;9591;52.742;13.650;2023-04-23T08:43:05;10.80;;;5.60;;
18917;SDS011;9591;52.742;13.650;2023-04-23T08:45:58;9.27;;;5.57;;
18917;SDS011;9591;52.742;13.650;2023-04-23T08:48:48;8.10;;;5.53;;
18917;SDS011;9591;52.742;13.650;2023-04-23T08:51:37;7.30;;;5.50;;
18917;SDS011;9591;52.742;13.650;2023-04-23T08:54:31;10.20;;;5.17;;
18917;SDS011;9591;52.742;13.650;2023-04-23T08:57:23;9.10;;;5.70;;
18917;SDS011;9591;52.742;13.650;2023-04-23T09:00:12;9.07;;;5.27;;
18917;SDS011;9591;52.742;13.650;2023-04-23T09:03:00;8.63;;;5.63;;
18917;SDS011;9591;52.742;13.650;2023-04-23T09:05:47;10.80;;;5.63;;
18917;SDS011;9591;52.742;13.650;2023-04-23T09:08:35;8.70;;;5.73;;
18917;SDS011;9591;52.742;13.650;2023-04-23T09:11:23;11.67;;;5.73;;
18917;SDS011;9591;52.742;13.650;2023-04-23T09:14:14;9.93;;;6.00;;
18917;SDS011;9591;52.742;13.650;2023-04-23T09:17:01;9.87;;;6.73;;
18917;SDS011;9591;52.742;13.650;2023-04-23T09:19:49;7.93;;;5.83;;
18917;SDS011;9591;52.742;13.650;2023-04-23T09:22:36;8.93;;;6.40;;
18917;SDS011;9591;52.742;13.650;2023-04-23T09:25:24;10.10;;;6.77;;
18917;SDS011;9591;52.742;13.650;2023-04-23T09:28:10;10.80;;;6.10;;
18917;SDS011;9591;52.742;13.650;2023-04-23T09:31:00;14.33;;;8.97;;
18917;SDS011;9591;52.742;13.650;2023-04-23T09:33:49;13.73;;;7.07;;
18917;SDS011;9591;52.742;13.650;2023-04-23T09:36:37;11.50;;;6.90;;
18917;SDS011;9591;52.742;13.650;2023-04-23T09:39:24;15.17;;;7.50;;
18917;SDS011;9591;52.742;13.650;2023-04-23T09:42:11;12.47;;;7.83;;
18917;SDS011;9591;52.742;13.650;2023-04-23T09:45:02;12.57;;;7.70;;
18917;SDS011;9591;52.742;13.650;2023-04-23T09:47:51;13.07;;;7.30;;
18917;SDS011;9591;52.742;13.650;2023-04-23T09:50:39;14.37;;;8.67;;
18917;SDS011;9591;52.742;13.650;2023-04-23T09:53:26;12.37;;;7.83;;
18917;SDS011;9591;52.742;13.650;2023-04-23T09:56:13;11.67;;;7.13;;
18917;SDS011;9591;52.742;13.650;2023-04-23T09:59:00;12.73;;;7.77;;
18917;SDS011;9591;52.742;13.650;2023-04-23T10:01:47;12.47;;;8.43;;
18917;SDS011;9591;52.742;13.650;2023-04-23T10:04:36;13.90;;;7.50;;
18917;SDS011;9591;52.742;13.650;2023-04-23T10:07:23;13.70;;;8.73;;
18917;SDS011;9591;52.742;13.650;2023-04-23T10:10:10;12.57;;;8.10;;
18917;SDS011;9591;52.742;13.650;2023-04-23T10:12:57;13.10;;;8.30;;
18917;SDS011;9591;52.742;13.650;2023-04-23T10:15:45;10.10;;;7.20;;
18917;SDS011;9591;52.742;13.650;2023-04-23T10:18:32;11.87;;;7.27;;
18917;SDS011;9591;52.742;13.650;2023-04-23T10:21:21;11.17;;;6.30;;
18917;SDS011;9591;52.742;13.650;2023-04-23T10:24:22;6.73;;;4.37;;
18917;SDS011;9591;52.742;13.650;2023-04-23T10:27:12;9.23;;;4.60;;
18917;SDS011;9591;52.742;13.650;2023-04-23T10:30:21;7.67;;;3.50;;
18917;SDS011;9591;52.742;13.650;2023-04-23T10:33:08;8.37;;;4.33;;
18917;SDS011;9591;52.742;13.650;2023-04-23T10:36:13;6.90;;;4.30;;
18917;SDS011;9591;52.742;13.650;2023-04-23T10:39:02;4.93;;;3.80;;
18917;SDS011;9591;52.742;13.650;2023-04-23T10:41:53;4.90;;;3.70;;
18917;SDS011;9591;52.742;13.650;2023-04-23T10:44:41;7.27;;;3.20;;
18917;SDS011;9591;52.742;13.650;2023-04-23T10:47:44;4.70;;;3.37;;
18917;SDS011;9591;52.742;13.650;2023-04-23T10:50:33;4.60;;;3.23;;
18917;SDS011;9591;52.742;13.650;2023-04-23T10:53:24;3.63;;;3.13;;
18917;SDS011;9591;52.742;13.650;2023-04-23T10:56:12;5.17;;;3.40;;
18917;SDS011;9591;52.742;13.650;2023-04-23T10:59:01;4.33;;;3.20;;
18917;SDS011;9591;52.742;13.650;2023-04-23T11:01:49;4.03;;;3.20;;
18917;SDS011;9591;52.742;13.650;2023-04-23T11:04:40;4.70;;;3.73;;
18917;SDS011;9591;52.742;13.650;2023-04-23T11:07:30;4.53;;;3.40;;
18917;SDS011;9591;52.742;13.650;2023-04-23T11:10:18;4.07;;;3.47;;
18917;SDS011;9591;52.742;13.650;2023-04-23T11:13:22;4.83;;;3.30;;
18917;SDS011;9591;52.742;13.650;2023-04-23T11:16:11;4.97;;;3.27;;
18917;SDS011;9591;52.742;13.650;2023-04-23T11:19:00;3.97;;;3.20;;
18917;SDS011;9591;52.742;13.650;2023-04-23T11:21:59;5.60;;;3.37;;
18917;SDS011;9591;52.742;13.650;2023-04-23T11:24:46;4.10;;;3.10;;
18917;SDS011;9591;52.742;13.650;2023-04-23T11:27:36;5.97;;;3.43;;
18917;SDS011;9591;52.742;13.650;2023-04-23T11:30:25;3.57;;;3.00;;
18917;SDS011;9591;52.742;13.650;2023-04-23T11:33:13;3.83;;;2.90;;
18917;SDS011;9591;52.742;13.650;2023-04-23T11:36:01;5.93;;;3.07;;
18917;SDS011;9591;52.742;13.650;2023-04-23T11:38:48;3.30;;;3.00;;
18917;SDS011;9591;52.742;13.650;2023-04-23T11:41:38;4.83;;;2.57;;
18917;SDS011;9591;52.742;13.650;2023-04-23T11:44:27;3.60;;;2.90;;
18917;SDS011;9591;52.742;13.650;2023-04-23T11:47:16;6.07;;;3.40;;
18917;SDS011;9591;52.742;13.650;2023-04-23T11:50:03;3.40;;;2.70;;
18917;SDS011;9591;52.742;13.650;2023-04-23T11:52:50;3.57;;;2.70;;
18917;SDS011;9591;52.742;13.650;2023-04-23T11:55:38;4.27;;;3.07;;
18917;SDS011;9591;52.742;13.650;2023-04-23T11:58:28;3.73;;;3.13;;
18917;SDS011;9591;52.742;13.650;2023-04-23T12:01:15;3.67;;;3.03;;
18917;SDS011;9591;52.742;13.650;2023-04-23T12:04:09;4.13;;;3.47;;
18917;SDS011;9591;52.742;13.650;2023-04-23T12:06:58;6.03;;;3.10;;
18917;SDS011;9591;52.742;13.650;2023-04-23T12:09:52;4.00;;;3.20;;
18917;SDS011;9591;52.742;13.650;2023-04-23T12:12:47;4.63;;;3.40;;
18917;SDS011;9591;52.742;13.650;2023-04-23T12:15:42;6.93;;;3.20;;
18917;SDS011;9591;52.742;13.650;2023-04-23T12:18:31;2.70;;;2.40;;
18917;SDS011;9591;52.742;13.650;2023-04-23T12:21:21;2.53;;;2.33;;
18917;SDS011;9591;52.742;13.650;2023-04-23T12:24:10;2.90;;;2.20;;
18917;SDS011;9591;52.742;13.650;2023-04-23T12:26:58;2.13;;;1.93;;
18917;SDS011;9591;52.742;13.650;2023-04-23T12:29:47;2.30;;;2.07;;
18917;SDS011;9591;52.742;13.650;2023-04-23T12:32:34;3.40;;;2.10;;
18917;SDS011;9591;52.742;13.650;2023-04-23T12:35:26;1.83;;;1.73;;
18917;SDS011;9591;52.742;13.650;2023-04-23T12:38:24;2.53;;;1.90;;
18917;SDS011;9591;52.742;13.650;2023-04-23T12:41:12;1.77;;;1.67;;
18917;SDS011;9591;52.742;13.650;2023-04-23T12:43:59;1.70;;;1.60;;
18917;SDS011;9591;52.742;13.650;2023-04-23T12:46:48;1.70;;;1.60;;
18917;SDS011;9591;52.742;13.650;2023-04-23T12:49:42;2.17;;;2.00;;
18917;SDS011;9591;52.742;13.650;2023-04-23T12:52:29;1.90;;;1.80;;
18917;SDS011;9591;52.742;13.650;2023-04-23T12:55:17;2.30;;;2.10;;
18917;SDS011;9591;52.742;13.650;2023-04-23T12:58:04;2.03;;;1.93;;
18917;SDS011;9591;52.742;13.650;2023-04-23T13:00:52;1.50;;;1.40;;
18917;SDS011;9591;52.742;13.650;2023-04-23T13:03:39;2.00;;;1.60;;
18917;SDS011;9591;52.742;13.650;2023-04-23T13:06:28;1.77;;;1.67;;
18917;SDS011;9591;52.742;13.650;2023-04-23T13:09:25;1.60;;;1.50;;
18917;SDS011;9591;52.742;13.650;2023-04-23T13:12:15;1.63;;;1.53;;
18917;SDS011;9591;52.742;13.650;2023-04-23T13:15:03;1.50;;;1.40;;
18917;SDS011;9591;52.742;13.650;2023-04-23T13:18:11;1.60;;;1.50;;
18917;SDS011;9591;52.742;13.650;2023-04-23T13:20:58;3.57;;;1.80;;
18917;SDS011;9591;52.742;13.650;2023-04-23T13:23:44;2.17;;;1.60;;
18917;SDS011;9591;52.742;13.650;2023-04-23T13:26:31;1.80;;;1.70;;
18917;SDS011;9591;52.742;13.650;2023-04-23T13:29:19;2.13;;;1.63;;
18917;SDS011;9591;52.742;13.650;2023-04-23T13:32:06;2.30;;;2.03;;
18917;SDS011;9591;52.742;13.650;2023-04-23T13:34:53;5.00;;;2.00;;
18917;SDS011;9591;52.742;13.650;2023-04-23T13:37:40;2.33;;;1.93;;
18917;SDS011;9591;52.742;13.650;2023-04-23T13:40:26;2.70;;;2.00;;
18917;SDS011;9591;52.742;13.650;2023-04-23T13:43:13;2.83;;;2.33;;
18917;SDS011;9591;52.742;13.650;2023-04-23T13:46:01;3.40;;;2.40;;
18917;SDS011;9591;52.742;13.650;2023-04-23T13:48:48;2.70;;;2.07;;
18917;SDS011;9591;52.742;13.650;2023-04-23T13:51:34;2.23;;;2.07;;
18917;SDS011;9591;52.742;13.650;2023-04-23T13:54:21;2.53;;;2.10;;
18917;SDS011;9591;52.742;13.650;2023-04-23T13:57:08;2.43;;;2.23;;
18917;SDS011;9591;52.742;13.650;2023-04-23T13:59:57;2.90;;;2.53;;
18917;SDS011;9591;52.742;13.650;2023-04-23T14:02:46;4.33;;;2.57;;
18917;SDS011;9591;52.742;13.650;2023-04-23T14:05:33;3.47;;;2.10;;
18917;SDS011;9591;52.742;13.650;2023-04-23T14:08:20;5.53;;;2.33;;
18917;SDS011;9591;52.742;13.650;2023-04-23T14:11:07;2.53;;;2.33;;
18917;SDS011;9591;52.742;13.650;2023-04-23T14:13:54;2.57;;;2.37;;
18917;SDS011;9591;52.742;13.650;2023-04-23T14:16:40;2.80;;;2.60;;
18917;SDS011;9591;52.742;13.650;2023-04-23T14:19:29;2.80;;;2.50;;
18917;SDS011;9591;52.742;13.650;2023-04-23T14:22:18;2.70;;;2.33;;
18917;SDS011;9591;52.742;13.650;2023-04-23T14:25:07;3.07;;;2.63;;
18917;SDS011;9591;52.742;13.650;2023-04-23T14:27:56;3.07;;;2.67;;
18917;SDS011;9591;52.742;13.650;2023-04-23T14:30:47;5.43;;;3.67;;
18917;SDS011;9591;52.742;13.650;2023-04-23T14:33:34;2.97;;;2.67;;
18917;SDS011;9591;52.742;13.650;2023-04-23T14:36:22;3.37;;;2.67;;
18917;SDS011;9591;52.742;13.650;2023-04-23T14:39:09;3.83;;;2.67;;
18917;SDS011;9591;52.742;13.650;2023-04-23T14:41:56;3.93;;;2.67;;
18917;SDS011;9591;52.742;13.650;2023-04-23T14:44:43;4.70;;;2.80;;
18917;SDS011;9591;52.742;13.650;2023-04-23T14:47:30;4.87;;;2.57;;
18917;SDS011;9591;52.742;13.650;2023-04-23T14:50:17;3.33;;;2.67;;
18917;SDS011;9591;52.742;13.650;2023-04-23T14:53:04;7.23;;;2.20;;
18917;SDS011;9591;52.742;13.650;2023-04-23T14:55:54;3.77;;;2.87;;
18917;SDS011;9591;52.742;13.650;2023-04-23T14:58:41;5.50;;;2.57;;
18917;SDS011;9591;52.742;13.650;2023-04-23T15:01:27;4.03;;;2.50;;
18917;SDS011;9591;52.742;13.650;2023-04-23T15:04:14;3.00;;;2.63;;
18917;SDS011;9591;52.742;13.650;2023-04-23T15:07:01;3.60;;;2.63;;
18917;SDS011;9591;52.742;13.650;2023-04-23T15:09:50;3.67;;;2.30;;
18917;SDS011;9591;52.742;13.650;2023-04-23T15:15:48;6.83;;;2.50;;
18917;SDS011;9591;52.742;13.650;2023-04-23T15:18:35;4.20;;;2.17;;
18917;SDS011;9591;52.742;13.650;2023-04-23T15:21:22;4.73;;;2.30;;
18917;SDS011;9591;52.742;13.650;2023-04-23T15:24:09;3.20;;;2.20;;
18917;SDS011;9591;52.742;13.650;2023-04-23T15:26:57;2.87;;;2.10;;
18917;SDS011;9591;52.742;13.650;2023-04-23T15:29:44;3.17;;;2.13;;
18917;SDS011;9591;52.742;13.650;2023-04-23T15:32:31;4.03;;;2.33;;
18917;SDS011;9591;52.742;13.650;2023-04-23T15:35:18;5.13;;;2.03;;
18917;SDS011;9591;52.742;13.650;2023-04-23T15:38:05;2.73;;;2.20;;
18917;SDS011;9591;52.742;13.650;2023-04-23T15:40:52;3.07;;;2.20;;
18917;SDS011;9591;52.742;13.650;2023-04-23T15:43:42;2.57;;;2.30;;
18917;SDS011;9591;52.742;13.650;2023-04-23T15:46:29;1.83;;;1.73;;
18917;SDS011;9591;52.742;13.650;2023-04-23T15:49:16;2.70;;;2.00;;
18917;SDS011;9591;52.742;13.650;2023-04-23T15:52:03;2.90;;;2.23;;
18917;SDS011;9591;52.742;13.650;2023-04-23T15:54:50;3.57;;;2.10;;
18917;SDS011;9591;52.742;13.650;2023-04-23T15:57:36;3.33;;;1.90;;
18917;SDS011;9591;52.742;13.650;2023-04-23T16:00:25;1.93;;;1.80;;
18917;SDS011;9591;52.742;13.650;2023-04-23T16:03:12;2.20;;;1.80;;
18917;SDS011;9591;52.742;13.650;2023-04-23T16:05:59;1.93;;;1.77;;
18917;SDS011;9591;52.742;13.650;2023-04-23T16:08:46;2.20;;;1.83;;
18917;SDS011;9591;52.742;13.650;2023-04-23T16:11:33;1.60;;;1.50;;
18917;SDS011;9591;52.742;13.650;2023-04-23T16:14:20;3.43;;;1.83;;
18917;SDS011;9591;52.742;13.650;2023-04-23T16:17:08;2.03;;;1.63;;
18917;SDS011;9591;52.742;13.650;2023-04-23T16:19:55;3.60;;;2.10;;
18917;SDS011;9591;52.742;13.650;2023-04-23T16:22:42;2.17;;;1.97;;
18917;SDS011;9591;52.742;13.650;2023-04-23T16:25:29;2.90;;;2.17;;
18917;SDS011;9591;52.742;13.650;2023-04-23T16:28:16;1.80;;;1.70;;
18917;SDS011;9591;52.742;13.650;2023-04-23T16:31:02;2.37;;;1.90;;
18917;SDS011;9591;52.742;13.650;2023-04-23T16:33:51;2.03;;;1.90;;
18917;SDS011;9591;52.742;13.650;2023-04-23T16:36:37;2.20;;;1.80;;
18917;SDS011;9591;52.742;13.650;2023-04-23T16:39:24;2.03;;;1.60;;
18917;SDS011;9591;52.742;13.650;2023-04-23T16:42:11;2.60;;;1.80;;
18917;SDS011;9591;52.742;13.650;2023-04-23T16:44:58;3.60;;;2.23;;
18917;SDS011;9591;52.742;13.650;2023-04-23T16:47:44;2.17;;;1.90;;
18917;SDS011;9591;52.742;13.650;2023-04-23T16:50:33;4.70;;;2.40;;